Airfield :
LOGIN :

Register | Disclaimer

   EN    FR    IT 

 










Legend :    VFR   Marginal VFR   IFR   Intensive IFR   Very Intensive IFR
Visi :
Ceiling :
>= 8 km
>= 3000ft
5 to 8 km
1000 to 3000 ft
1500m to 5 km
500 to 1000 ft
800 to 1500m
200 to 500 ft
< 800m
< 200 ft
Symbols :   Thunderstorms  Fog  Heavy snow  Heavy precipitations  Wind > 20 kt
SIGMETs :     Misc.  Thunderstorms  Icing  Turbulence  Mountain Waves  Volcanic Ashes






- Airport Elevation : 297 ft
- IATA code : UIP


LFRQ - Quimper Pluguffan

CURRENT METAR :
  • 131000Z AUTO 25007KT 9999 FEW030/// SCT052/// BKN064/// ///TCU 10/05 Q1007 BECMG 4000 RA BKN010

EXPIRED METARs :
  • 130930Z AUTO 26004KT 230V300 9999 FEW044/// BKN058/// ///TCU 09/05 Q1008 BECMG 23015KT 4000 RA BKN010
  • 130900Z AUTO VRB02KT 9999 FEW040 08/05 Q1008 BECMG 23015KT 4000 RA BKN010
  • 130830Z AUTO 26003KT 9999 FEW033 06/04 Q1008 BECMG 23015KT 4000 RA BKN010
  • 130800Z AUTO 29004KT CAVOK 05/03 Q1008 NOSIG
  • 130730Z AUTO 32006KT 9999 FEW033 BKN054 05/04 Q1008 NOSIG

TAF TAF LFRQ
Valid from the 13 at 06:00 until the 14 at 06:00 UTC


130500Z 1306/1406 25005KT 9999 FEW032 SCT040
BECMG 1310/1312 23015KT 4000 RA BKN010
TEMPO 1314/1318 24018G35KT 2000 RA OVC008
BECMG 1318/1319 29010KT 9999 NSW SCT022 SCT032
TEMPO 1319/1324 30015G25KT 4000 SHRA SCT014TCU



MET'MAP, your aeronautical weather chart ! - Copyright ORBIFLY December 2007 - Disclaimer

ORBIFLY MET'MAP TEAM :

Programming & Development : Alexandra Zaïnal
Concept & Development : Baudouin d'Aumeries
Co-Development & Prog : Marc-Olivier Méhu
Technical & hardware support : Manuel Goepfert

Contact : metmap@orbifly.com




SOURCES & CREDITS :

   NOAA